createdAt,value
2023-01-15T00:02:19.533Z,62.46
2023-01-15T00:05:11.101Z,63.80
2023-01-15T00:07:53.510Z,63.24
2023-01-15T00:10:43.042Z,64.29
2023-01-15T00:13:26.443Z,64.73
2023-01-15T00:16:18.119Z,63.72
2023-01-15T00:19:09.271Z,65.46
2023-01-15T00:21:58.081Z,65.58
2023-01-15T00:24:58.896Z,65.56
2023-01-15T00:27:48.209Z,63.84
2023-01-15T00:30:30.473Z,64.35
2023-01-15T00:33:19.169Z,64.74
2023-01-15T00:36:01.518Z,64.85
2023-01-15T00:38:50.086Z,65.21
2023-01-15T00:41:38.480Z,63.60
2023-01-15T00:44:20.094Z,64.27
2023-01-15T00:47:02.446Z,64.01
2023-01-15T00:49:51.068Z,64.13
2023-01-15T00:52:33.662Z,64.32
2023-01-15T00:55:23.200Z,65.51
2023-01-15T00:58:12.151Z,64.73
2023-01-15T01:00:54.474Z,63.80
2023-01-15T01:03:43.188Z,63.22
2023-01-15T01:06:25.562Z,63.31
2023-01-15T01:09:14.122Z,62.59
2023-01-15T01:12:05.030Z,63.93
2023-01-15T01:14:47.327Z,63.67
2023-01-15T01:17:36.151Z,64.25
2023-01-15T01:20:20.060Z,64.51
2023-01-15T01:23:09.113Z,64.94
2023-01-15T01:25:51.448Z,64.47
2023-01-15T01:28:40.181Z,64.84
2023-01-15T01:31:23.236Z,65.37
2023-01-15T01:34:14.227Z,64.69
2023-01-15T01:37:04.163Z,64.12
2023-01-15T01:39:46.434Z,64.29
2023-01-15T01:42:35.038Z,64.63
2023-01-15T01:45:41.050Z,64.72
2023-01-15T01:48:30.141Z,62.95
2023-01-15T01:51:19.159Z,63.68
2023-01-15T01:54:03.234Z,62.40
2023-01-15T01:56:52.283Z,61.94
2023-01-15T01:59:41.466Z,62.27
2023-01-15T02:02:28.209Z,63.12
2023-01-15T02:05:18.245Z,61.92
2023-01-15T02:08:03.182Z,61.59
2023-01-15T02:10:54.641Z,60.32
2023-01-15T02:14:00.137Z,61.50
2023-01-15T02:17:11.377Z,61.63
2023-01-15T02:20:19.131Z,61.18
2023-01-15T02:23:43.147Z,59.84
2023-01-15T02:26:46.964Z,60.94
2023-01-15T02:29:47.039Z,61.26
2023-01-15T02:32:51.387Z,61.11
2023-01-15T02:35:43.034Z,60.98
2023-01-15T02:38:34.533Z,61.02
2023-01-15T02:41:33.132Z,60.72
2023-01-15T02:44:28.408Z,60.48
2023-01-15T02:47:13.030Z,60.01
2023-01-15T02:49:59.126Z,58.23
2023-01-15T02:53:02.087Z,57.74
2023-01-15T02:55:56.440Z,57.72
2023-01-15T02:58:48.125Z,57.09
2023-01-15T03:01:38.321Z,54.10
2023-01-15T03:04:56.084Z,54.50
2023-01-15T03:07:59.497Z,53.08
2023-01-15T03:10:53.037Z,53.52
2023-01-15T03:13:48.057Z,53.48
2023-01-15T03:16:52.094Z,53.88
2023-01-15T03:19:43.220Z,51.45
2023-01-15T03:22:38.249Z,50.36
2023-01-15T03:25:34.694Z,50.70
2023-01-15T03:28:20.061Z,49.18
2023-01-15T03:31:09.441Z,48.11
2023-01-15T03:33:52.086Z,44.53
2023-01-15T03:36:42.442Z,45.74
2023-01-15T03:39:27.124Z,42.35
2023-01-15T03:42:55.059Z,43.60
2023-01-15T03:45:48.190Z,40.13
2023-01-15T03:48:52.347Z,38.55
2023-01-15T03:51:58.118Z,38.87
2023-01-15T03:54:46.574Z,35.51
2023-01-15T03:58:01.149Z,34.78
2023-01-15T04:00:53.560Z,38.04
2023-01-15T04:03:44.099Z,37.01
2023-01-15T04:06:30.548Z,36.25
2023-01-15T04:09:22.024Z,32.33
2023-01-15T04:12:14.992Z,31.71
2023-01-15T04:14:57.296Z,32.90
2023-01-15T04:17:46.021Z,33.06
2023-01-15T04:20:36.341Z,31.40
2023-01-15T04:23:20.103Z,30.68
2023-01-15T04:26:08.845Z,28.58
2023-01-15T04:28:52.007Z,31.00
2023-01-15T04:31:34.628Z,28.93
2023-01-15T04:34:22.944Z,28.57
2023-01-15T04:37:05.481Z,27.39
2023-01-15T04:39:53.975Z,29.95
2023-01-15T04:43:01.712Z,29.33
2023-01-15T04:45:44.029Z,30.55
2023-01-15T04:48:26.955Z,28.25
2023-01-15T04:51:20.140Z,30.67
2023-01-15T04:54:12.103Z,29.68
2023-01-15T04:56:57.401Z,29.64
2023-01-15T04:59:46.171Z,29.07
2023-01-15T05:02:28.451Z,27.79
2023-01-15T05:05:17.016Z,28.34
2023-01-15T05:08:06.152Z,30.64
2023-01-15T05:10:54.592Z,28.32
2023-01-15T05:13:38.203Z,30.85
2023-01-15T05:16:30.958Z,30.34
2023-01-15T05:19:17.127Z,30.40
2023-01-15T05:22:08.109Z,28.36
2023-01-15T05:24:58.137Z,28.83
2023-01-15T05:27:41.908Z,29.35
2023-01-15T05:30:31.120Z,28.96
2023-01-15T05:33:19.457Z,27.51
2023-01-15T05:36:02.102Z,29.47
2023-01-15T05:38:50.437Z,29.53
2023-01-15T05:41:51.227Z,28.69
2023-01-15T05:44:40.408Z,27.71
2023-01-15T05:47:23.070Z,27.77
2023-01-15T05:50:12.456Z,29.79
2023-01-15T05:52:55.062Z,28.61
2023-01-15T05:55:37.315Z,29.02
2023-01-15T05:58:25.979Z,27.10
2023-01-15T06:01:17.078Z,25.93
2023-01-15T06:03:59.467Z,26.74
2023-01-15T06:06:49.094Z,26.56
2023-01-15T06:09:39.098Z,27.08
2023-01-15T06:12:27.435Z,26.10
2023-01-15T06:15:09.015Z,24.63
2023-01-15T06:17:59.154Z,26.75
2023-01-15T06:20:44.450Z,24.34
2023-01-15T06:23:33.019Z,25.08
2023-01-15T06:26:21.391Z,25.65
2023-01-15T06:29:10.166Z,23.20
2023-01-15T06:31:52.342Z,23.65
2023-01-15T06:34:41.114Z,25.15
2023-01-15T06:37:23.307Z,20.56
2023-01-15T06:40:12.088Z,21.01
2023-01-15T06:43:26.014Z,21.72
2023-01-15T06:46:36.105Z,21.04
2023-01-15T06:49:18.424Z,22.15
2023-01-15T06:52:07.038Z,22.49
2023-01-15T06:54:52.747Z,23.06
2023-01-15T06:57:41.995Z,21.64
2023-01-15T07:00:24.442Z,22.25
2023-01-15T07:03:14.057Z,23.14
2023-01-15T07:05:56.573Z,22.46
2023-01-15T07:08:44.959Z,24.74
2023-01-15T07:11:27.422Z,24.29
2023-01-15T07:14:15.947Z,23.60
2023-01-15T07:17:00.413Z,24.81
2023-01-15T07:19:48.984Z,21.96
2023-01-15T07:22:31.441Z,23.63
2023-01-15T07:25:20.372Z,21.87
2023-01-15T07:28:02.696Z,23.46
2023-01-15T07:30:51.417Z,25.13
2023-01-15T07:33:33.466Z,22.98
2023-01-15T07:36:22.026Z,22.64
2023-01-15T07:39:04.428Z,22.43
2023-01-15T07:42:11.118Z,23.84
2023-01-15T07:45:12.898Z,24.27
2023-01-15T07:48:21.101Z,24.30
2023-01-15T07:51:03.451Z,23.52
2023-01-15T07:53:52.093Z,24.29
2023-01-15T07:56:34.398Z,24.45
2023-01-15T07:59:23.112Z,23.22
2023-01-15T08:02:05.362Z,23.94
2023-01-15T08:04:56.037Z,25.19
2023-01-15T08:07:44.985Z,22.74
2023-01-15T08:10:27.306Z,24.28
2023-01-15T08:13:33.990Z,24.09
2023-01-15T08:16:16.589Z,24.70
2023-01-15T08:19:05.114Z,24.79
2023-01-15T08:21:47.241Z,24.06
2023-01-15T08:24:36.027Z,26.52
2023-01-15T08:27:25.412Z,26.50
2023-01-15T08:30:07.035Z,24.78
2023-01-15T08:32:56.536Z,24.44
2023-01-15T08:35:39.090Z,24.52
2023-01-15T08:38:27.331Z,25.97
2023-01-15T08:41:21.981Z,26.62
2023-01-15T08:44:04.596Z,26.33
2023-01-15T08:46:53.030Z,26.08
2023-01-15T08:49:35.237Z,25.38
2023-01-15T08:52:24.089Z,26.14
2023-01-15T08:55:14.001Z,26.26
2023-01-15T08:58:03.050Z,26.12
2023-01-15T09:00:45.793Z,26.83
2023-01-15T09:03:35.115Z,26.81
2023-01-15T09:06:23.380Z,26.79
2023-01-15T09:09:08.135Z,26.54
2023-01-15T09:11:50.323Z,27.66
2023-01-15T09:14:59.505Z,27.66
2023-01-15T09:17:42.052Z,27.60
2023-01-15T09:20:31.922Z,28.69
2023-01-15T09:23:22.342Z,28.03
2023-01-15T09:26:07.106Z,27.45
2023-01-15T09:28:55.741Z,28.00
2023-01-15T09:31:39.529Z,27.56
2023-01-15T09:34:21.286Z,27.82
2023-01-15T09:37:10.080Z,27.57
2023-01-15T09:39:51.922Z,28.08
2023-01-15T09:43:17.141Z,27.62
2023-01-15T09:46:14.864Z,28.87
2023-01-15T09:49:40.094Z,28.89
2023-01-15T09:52:51.016Z,28.52
2023-01-15T09:55:50.177Z,27.00
2023-01-15T09:58:47.404Z,28.61
2023-01-15T10:01:36.989Z,28.64
2023-01-15T10:04:45.324Z,28.45
2023-01-15T10:07:36.091Z,28.19
2023-01-15T10:10:24.296Z,27.51
2023-01-15T10:13:22.031Z,28.73
2023-01-15T10:16:11.332Z,27.13
2023-01-15T10:18:54.189Z,27.88
2023-01-15T10:21:55.480Z,27.57
2023-01-15T10:24:54.137Z,26.75
2023-01-15T10:27:37.666Z,28.50
2023-01-15T10:30:45.156Z,28.31
2023-01-15T10:34:01.456Z,28.46
2023-01-15T10:37:01.974Z,29.04
2023-01-15T10:40:13.516Z,30.00
2023-01-15T10:43:33.126Z,27.93
2023-01-15T10:46:40.074Z,30.19
2023-01-15T10:49:29.117Z,31.07
2023-01-15T10:52:21.493Z,30.73
2023-01-15T10:55:39.914Z,30.73
2023-01-15T10:58:48.005Z,30.93
2023-01-15T11:01:36.977Z,32.34
2023-01-15T11:04:20.336Z,31.46
2023-01-15T11:07:10.959Z,33.08
2023-01-15T11:09:53.506Z,33.36
2023-01-15T11:13:01.968Z,33.27
2023-01-15T11:16:02.679Z,34.53
2023-01-15T11:19:12.087Z,34.38
2023-01-15T11:21:55.332Z,35.91
2023-01-15T11:25:01.072Z,36.73
2023-01-15T11:27:51.966Z,36.29
2023-01-15T11:30:46.146Z,35.67
2023-01-15T11:33:33.347Z,36.29
2023-01-15T11:36:31.926Z,36.58
2023-01-15T11:39:29.207Z,36.54
2023-01-15T11:42:42.976Z,36.61
2023-01-15T11:45:54.961Z,37.51
2023-01-15T11:49:14.094Z,37.36
2023-01-15T11:52:04.059Z,38.27
2023-01-15T11:54:57.417Z,37.83
2023-01-15T11:57:43.049Z,36.48
2023-01-15T12:00:38.399Z,39.17
2023-01-15T12:03:27.094Z,40.98
2023-01-15T12:06:20.354Z,38.38
2023-01-15T12:09:25.015Z,37.70
2023-01-15T12:12:25.450Z,41.48
2023-01-15T12:15:27.010Z,42.44
2023-01-15T12:18:34.099Z,43.19
2023-01-15T12:21:50.422Z,42.99
2023-01-15T12:24:53.107Z,42.69
2023-01-15T12:27:55.314Z,43.63
2023-01-15T12:31:05.135Z,44.10
2023-01-15T12:34:03.056Z,44.98
2023-01-15T12:36:58.627Z,45.91
2023-01-15T12:39:55.944Z,46.42
2023-01-15T12:43:10.064Z,46.74
2023-01-15T12:46:05.076Z,48.63
2023-01-15T12:49:05.018Z,49.03
2023-01-15T12:52:08.290Z,49.93
2023-01-15T12:55:14.039Z,49.95
2023-01-15T12:58:01.105Z,50.79
2023-01-15T13:00:56.044Z,50.18
2023-01-15T13:03:57.148Z,51.26
2023-01-15T13:06:41.491Z,51.03
2023-01-15T13:09:52.982Z,51.24
2023-01-15T13:12:38.371Z,51.37
2023-01-15T13:15:33.970Z,51.32
2023-01-15T13:18:44.016Z,52.05
2023-01-15T13:21:28.235Z,51.90
2023-01-15T13:24:31.113Z,52.25
2023-01-15T13:27:45.641Z,52.24
2023-01-15T13:31:05.012Z,53.73
2023-01-15T13:34:01.371Z,54.38
2023-01-15T13:36:52.016Z,55.05
2023-01-15T13:39:51.391Z,56.13
2023-01-15T13:42:46.009Z,55.74
2023-01-15T13:45:34.383Z,56.35
2023-01-15T13:48:32.025Z,56.78
2023-01-15T13:51:44.326Z,57.26
2023-01-15T13:54:29.917Z,57.50
2023-01-15T13:57:34.099Z,58.68
2023-01-15T14:00:41.011Z,59.05
2023-01-15T14:04:07.434Z,59.59
2023-01-15T14:07:07.832Z,59.50
2023-01-15T14:09:50.494Z,60.26
2023-01-15T14:13:07.785Z,60.77
2023-01-15T14:15:56.380Z,60.50
2023-01-15T14:18:52.979Z,59.81
2023-01-15T14:22:13.341Z,60.24
2023-01-15T14:25:11.980Z,59.94
2023-01-15T14:28:23.463Z,60.12
2023-01-15T14:31:30.074Z,60.66
2023-01-15T14:34:33.066Z,61.72
2023-01-15T14:37:21.306Z,61.98
2023-01-15T14:40:12.894Z,62.20
2023-01-15T14:43:13.921Z,61.75
2023-01-15T14:45:57.137Z,62.17
2023-01-15T14:48:46.007Z,62.78
2023-01-15T14:51:31.941Z,62.70
2023-01-15T14:54:26.037Z,62.60
2023-01-15T14:57:10.806Z,64.42
2023-01-15T15:00:12.975Z,63.88
2023-01-15T15:03:02.008Z,63.89
2023-01-15T15:05:52.022Z,63.67
2023-01-15T15:08:43.305Z,64.08
2023-01-15T15:11:55.087Z,64.10
2023-01-15T15:14:48.734Z,65.26
2023-01-15T15:17:53.035Z,65.11
2023-01-15T15:20:56.273Z,64.46
2023-01-15T15:23:57.030Z,64.18
2023-01-15T15:26:40.846Z,64.47
2023-01-15T15:29:32.004Z,64.87
2023-01-15T15:32:28.336Z,65.12
2023-01-15T15:35:10.049Z,65.70
2023-01-15T15:37:52.541Z,64.91
2023-01-15T15:40:49.042Z,65.75
2023-01-15T15:44:25.945Z,66.55
2023-01-15T15:47:39.841Z,65.91
2023-01-15T15:50:43.850Z,66.24
2023-01-15T15:53:25.876Z,66.32
2023-01-15T15:56:15.951Z,66.77
2023-01-15T15:59:00.527Z,66.89
2023-01-15T16:01:53.159Z,66.25
2023-01-15T16:04:41.840Z,66.75
2023-01-15T16:07:41.834Z,66.81
2023-01-15T16:10:30.738Z,67.19
2023-01-15T16:13:26.038Z,67.90
2023-01-15T16:16:10.254Z,67.86
2023-01-15T16:19:02.856Z,68.21
2023-01-15T16:21:46.241Z,67.79
2023-01-15T16:24:40.851Z,68.43
2023-01-15T16:27:26.394Z,68.13
2023-01-15T16:30:14.938Z,68.72
2023-01-15T16:33:09.756Z,68.99
2023-01-15T16:35:51.895Z,68.00
2023-01-15T16:38:47.312Z,69.61
2023-01-15T16:41:37.046Z,69.12
2023-01-15T16:44:45.211Z,68.52
2023-01-15T16:47:36.907Z,69.49
2023-01-15T16:50:32.457Z,69.07
2023-01-15T16:53:34.931Z,69.29
2023-01-15T16:56:44.482Z,69.09
2023-01-15T16:59:28.069Z,69.61
2023-01-15T17:02:30.789Z,69.16
2023-01-15T17:05:28.995Z,69.13
2023-01-15T17:08:33.671Z,69.89
2023-01-15T17:11:37.972Z,69.42
2023-01-15T17:14:26.334Z,69.23
2023-01-15T17:17:33.868Z,68.83
2023-01-15T17:20:19.140Z,69.84
2023-01-15T17:23:08.955Z,69.66
2023-01-15T17:25:57.411Z,69.51
2023-01-15T17:28:40.087Z,69.52
2023-01-15T17:31:34.358Z,69.79
2023-01-15T17:34:19.265Z,69.75
2023-01-15T17:37:08.428Z,69.14
2023-01-15T17:39:51.132Z,69.83
2023-01-15T17:42:45.794Z,70.00
2023-01-15T17:45:37.934Z,68.75
2023-01-15T17:48:20.202Z,68.62
2023-01-15T17:51:10.030Z,68.75
2023-01-15T17:53:52.274Z,69.12
2023-01-15T17:56:58.972Z,69.44
2023-01-15T17:59:59.827Z,69.13
2023-01-15T18:03:27.016Z,69.32
2023-01-15T18:06:09.424Z,69.71
2023-01-15T18:09:05.044Z,70.99
2023-01-15T18:11:47.686Z,70.42
2023-01-15T18:14:37.094Z,69.94
2023-01-15T18:17:19.475Z,71.35
2023-01-15T18:20:08.104Z,71.38
2023-01-15T18:22:50.352Z,71.57
2023-01-15T18:25:39.089Z,71.58
2023-01-15T18:28:22.380Z,71.04
2023-01-15T18:31:11.925Z,71.45
2023-01-15T18:34:00.997Z,71.68
2023-01-15T18:36:50.365Z,70.51
2023-01-15T18:39:32.984Z,70.68
2023-01-15T18:42:47.033Z,70.43
2023-01-15T18:45:47.349Z,71.17
2023-01-15T18:48:35.837Z,71.26
2023-01-15T18:51:24.990Z,70.77
2023-01-15T18:54:07.458Z,71.47
2023-01-15T18:56:56.003Z,70.98
2023-01-15T18:59:38.321Z,71.67
2023-01-15T19:02:29.035Z,71.03
2023-01-15T19:05:14.375Z,72.03
2023-01-15T19:08:02.960Z,71.74
2023-01-15T19:10:52.157Z,71.11
2023-01-15T19:13:40.543Z,71.80
2023-01-15T19:16:41.942Z,72.05
2023-01-15T19:19:30.426Z,72.47
2023-01-15T19:22:31.101Z,72.92
2023-01-15T19:25:21.737Z,72.09
2023-01-15T19:28:05.969Z,73.35
2023-01-15T19:31:21.734Z,71.91
2023-01-15T19:34:32.591Z,72.51
2023-01-15T19:37:21.534Z,72.08
2023-01-15T19:40:03.018Z,72.26
2023-01-15T19:43:16.829Z,71.97
2023-01-15T19:46:23.904Z,71.67
2023-01-15T19:49:31.984Z,71.15
2023-01-15T19:52:38.800Z,71.20
2023-01-15T19:55:22.432Z,71.70
2023-01-15T19:58:13.849Z,71.91
2023-01-15T20:00:57.484Z,72.24
2023-01-15T20:03:45.805Z,72.25
2023-01-15T20:06:28.329Z,71.64
2023-01-15T20:09:16.934Z,71.83
2023-01-15T20:12:17.910Z,73.16
2023-01-15T20:15:07.031Z,72.64
2023-01-15T20:17:49.195Z,72.03
2023-01-15T20:20:37.846Z,71.66
2023-01-15T20:23:26.799Z,71.59
2023-01-15T20:26:11.672Z,70.94
2023-01-15T20:29:00.899Z,71.50
2023-01-15T20:31:49.293Z,71.99
2023-01-15T20:34:30.785Z,71.38
2023-01-15T20:37:13.041Z,71.16
2023-01-15T20:40:01.931Z,71.38
2023-01-15T20:43:15.766Z,70.80
2023-01-15T20:46:18.832Z,70.57
2023-01-15T20:49:19.681Z,70.39
2023-01-15T20:52:08.959Z,70.32
2023-01-15T20:54:51.588Z,70.30
2023-01-15T20:57:45.877Z,70.77
2023-01-15T21:00:29.316Z,70.97
2023-01-15T21:03:20.113Z,71.11
2023-01-15T21:06:06.027Z,71.99
2023-01-15T21:08:54.858Z,72.31
2023-01-15T21:11:37.235Z,72.20
2023-01-15T21:14:25.934Z,71.90
2023-01-15T21:17:08.288Z,71.58
2023-01-15T21:19:56.832Z,72.11
2023-01-15T21:22:39.227Z,72.26
2023-01-15T21:25:27.920Z,71.62
2023-01-15T21:28:10.298Z,71.34
2023-01-15T21:30:58.855Z,72.04
2023-01-15T21:33:41.374Z,72.51
2023-01-15T21:36:30.032Z,72.13
2023-01-15T21:39:12.188Z,72.88
2023-01-15T21:42:18.928Z,72.72
2023-01-15T21:45:14.780Z,73.44
2023-01-15T21:48:03.923Z,72.75
2023-01-15T21:50:46.263Z,73.45
2023-01-15T21:53:34.998Z,72.51
2023-01-15T21:56:17.342Z,72.60
2023-01-15T21:59:05.975Z,73.27
2023-01-15T22:01:55.911Z,73.22
2023-01-15T22:04:44.865Z,72.11
2023-01-15T22:07:27.205Z,73.26
2023-01-15T22:10:15.964Z,73.23
2023-01-15T22:13:04.841Z,73.02
2023-01-15T22:16:01.916Z,73.07
2023-01-15T22:18:44.115Z,74.01
2023-01-15T22:21:32.914Z,73.92
2023-01-15T22:24:21.819Z,73.60
2023-01-15T22:27:13.945Z,72.78
2023-01-15T22:29:56.140Z,73.31
2023-01-15T22:32:44.942Z,73.89
2023-01-15T22:35:27.990Z,74.52
2023-01-15T22:38:16.901Z,73.62
2023-01-15T22:41:05.901Z,73.60
2023-01-15T22:43:54.855Z,73.21
2023-01-15T22:46:37.177Z,72.57
2023-01-15T22:49:25.769Z,72.04
2023-01-15T22:52:14.971Z,71.57
2023-01-15T22:55:04.184Z,72.26
2023-01-15T22:57:45.913Z,73.21
2023-01-15T23:00:34.198Z,72.85
2023-01-15T23:03:16.950Z,74.08
2023-01-15T23:06:10.175Z,74.43
2023-01-15T23:08:52.808Z,74.42
2023-01-15T23:11:35.462Z,73.59
2023-01-15T23:14:25.793Z,73.91
2023-01-15T23:17:08.077Z,73.73
2023-01-15T23:19:56.794Z,73.68
2023-01-15T23:22:39.300Z,74.42
2023-01-15T23:25:27.851Z,73.92
2023-01-15T23:28:10.272Z,72.85
2023-01-15T23:30:58.809Z,71.69
2023-01-15T23:33:41.092Z,72.71
2023-01-15T23:36:30.891Z,72.10
2023-01-15T23:39:25.916Z,72.57
2023-01-15T23:42:26.518Z,73.03
2023-01-15T23:45:33.800Z,73.46
2023-01-15T23:48:22.835Z,74.34
2023-01-15T23:51:11.925Z,74.22
2023-01-15T23:53:54.111Z,73.40
2023-01-15T23:56:44.825Z,73.72
2023-01-15T23:59:28.069Z,74.06
